sensor_id;sensor_type;location;lat;lon;timestamp;pressure;altitude;pressure_sealevel;temperature;humidity
45872;BME280;32333;55.844;-3.210;2023-08-30T00:01:51;98572.26;;;9.24;100.00
45872;BME280;32333;55.844;-3.210;2023-08-30T00:04:18;98575.37;;;9.01;100.00
45872;BME280;32333;55.844;-3.210;2023-08-30T00:06:45;98571.47;;;9.48;100.00
45872;BME280;32333;55.844;-3.210;2023-08-30T00:09:13;98574.81;;;9.27;100.00
45872;BME280;32333;55.844;-3.210;2023-08-30T00:11:40;98574.54;;;8.49;100.00
45872;BME280;32333;55.844;-3.210;2023-08-30T00:14:35;98573.25;;;9.30;100.00
45872;BME280;32333;55.844;-3.210;2023-08-30T00:17:02;98575.54;;;8.86;100.00
45872;BME280;32333;55.844;-3.210;2023-08-30T00:19:30;98574.08;;;8.63;100.00
45872;BME280;32333;55.844;-3.210;2023-08-30T00:21:58;98572.46;;;8.64;100.00
45872;BME280;32333;55.844;-3.210;2023-08-30T00:24:25;98578.89;;;9.26;100.00
45872;BME280;32333;55.844;-3.210;2023-08-30T00:26:53;98581.33;;;8.73;100.00
45872;BME280;32333;55.844;-3.210;2023-08-30T00:29:20;98587.67;;;9.29;100.00
45872;BME280;32333;55.844;-3.210;2023-08-30T00:31:47;98589.70;;;9.28;100.00
45872;BME280;32333;55.844;-3.210;2023-08-30T00:34:15;98582.40;;;8.96;100.00
45872;BME280;32333;55.844;-3.210;2023-08-30T00:36:42;98579.03;;;8.70;100.00
45872;BME280;32333;55.844;-3.210;2023-08-30T00:39:10;98573.56;;;9.08;100.00
45872;BME280;32333;55.844;-3.210;2023-08-30T00:41:38;98573.18;;;9.14;100.00
45872;BME280;32333;55.844;-3.210;2023-08-30T00:44:35;98571.49;;;9.04;100.00
45872;BME280;32333;55.844;-3.210;2023-08-30T00:47:03;98571.47;;;9.15;100.00
45872;BME280;32333;55.844;-3.210;2023-08-30T00:49:31;98572.36;;;9.52;100.00
45872;BME280;32333;55.844;-3.210;2023-08-30T00:52:02;98572.48;;;9.36;100.00
45872;BME280;32333;55.844;-3.210;2023-08-30T00:54:30;98573.95;;;8.59;100.00
45872;BME280;32333;55.844;-3.210;2023-08-30T00:57:00;98569.74;;;9.20;100.00
45872;BME280;32333;55.844;-3.210;2023-08-30T00:59:30;98567.28;;;8.83;100.00
45872;BME280;32333;55.844;-3.210;2023-08-30T01:01:59;98566.72;;;8.96;100.00
45872;BME280;32333;55.844;-3.210;2023-08-30T01:04:28;98565.86;;;9.60;100.00
45872;BME280;32333;55.844;-3.210;2023-08-30T01:06:57;98568.49;;;9.50;100.00
45872;BME280;32333;55.844;-3.210;2023-08-30T01:09:25;98566.74;;;9.68;100.00
45872;BME280;32333;55.844;-3.210;2023-08-30T01:11:57;98562.24;;;9.54;100.00
45872;BME280;32333;55.844;-3.210;2023-08-30T01:14:40;98567.92;;;9.29;100.00
45872;BME280;32333;55.844;-3.210;2023-08-30T01:17:11;98570.88;;;9.00;100.00
45872;BME280;32333;55.844;-3.210;2023-08-30T01:19:47;98572.48;;;9.25;100.00
45872;BME280;32333;55.844;-3.210;2023-08-30T01:22:26;98569.47;;;9.39;100.00
45872;BME280;32333;55.844;-3.210;2023-08-30T01:25:08;98564.78;;;9.44;100.00
45872;BME280;32333;55.844;-3.210;2023-08-30T01:27:37;98566.40;;;9.39;100.00
45872;BME280;32333;55.844;-3.210;2023-08-30T01:30:08;98564.52;;;9.58;100.00
45872;BME280;32333;55.844;-3.210;2023-08-30T01:32:37;98570.58;;;8.81;100.00
45872;BME280;32333;55.844;-3.210;2023-08-30T01:35:07;98565.35;;;9.46;100.00
45872;BME280;32333;55.844;-3.210;2023-08-30T01:37:36;98573.23;;;8.82;100.00
45872;BME280;32333;55.844;-3.210;2023-08-30T01:40:06;98569.51;;;10.02;100.00
45872;BME280;32333;55.844;-3.210;2023-08-30T01:44:38;98563.89;;;10.37;100.00
45872;BME280;32333;55.844;-3.210;2023-08-30T01:47:08;98563.10;;;9.76;100.00
45872;BME280;32333;55.844;-3.210;2023-08-30T01:49:37;98567.86;;;9.30;100.00
45872;BME280;32333;55.844;-3.210;2023-08-30T01:52:06;98556.44;;;9.25;100.00
45872;BME280;32333;55.844;-3.210;2023-08-30T01:54:34;98559.64;;;8.53;100.00
45872;BME280;32333;55.844;-3.210;2023-08-30T01:57:04;98554.82;;;10.25;100.00
45872;BME280;32333;55.844;-3.210;2023-08-30T01:59:33;98558.26;;;9.48;100.00
45872;BME280;32333;55.844;-3.210;2023-08-30T02:02:01;98558.03;;;9.99;100.00
45872;BME280;32333;55.844;-3.210;2023-08-30T02:04:28;98556.60;;;10.02;100.00
45872;BME280;32333;55.844;-3.210;2023-08-30T02:07:00;98553.84;;;9.34;100.00
45872;BME280;32333;55.844;-3.210;2023-08-30T02:09:35;98555.53;;;10.25;100.00
45872;BME280;32333;55.844;-3.210;2023-08-30T02:14:37;98566.44;;;8.96;100.00
45872;BME280;32333;55.844;-3.210;2023-08-30T02:17:07;98561.29;;;9.27;100.00
45872;BME280;32333;55.844;-3.210;2023-08-30T02:19:36;98563.01;;;8.79;100.00
45872;BME280;32333;55.844;-3.210;2023-08-30T02:22:03;98556.96;;;9.47;100.00
45872;BME280;32333;55.844;-3.210;2023-08-30T02:24:31;98559.28;;;9.61;100.00
45872;BME280;32333;55.844;-3.210;2023-08-30T02:26:59;98560.72;;;9.57;100.00
45872;BME280;32333;55.844;-3.210;2023-08-30T02:29:26;98561.59;;;9.31;100.00
45872;BME280;32333;55.844;-3.210;2023-08-30T02:31:53;98565.09;;;9.06;100.00
45872;BME280;32333;55.844;-3.210;2023-08-30T02:34:22;98561.52;;;9.25;100.00
45872;BME280;32333;55.844;-3.210;2023-08-30T02:36:49;98561.62;;;10.86;100.00
45872;BME280;32333;55.844;-3.210;2023-08-30T02:39:17;98559.66;;;11.05;100.00
45872;BME280;32333;55.844;-3.210;2023-08-30T02:41:44;98562.64;;;10.16;100.00
45872;BME280;32333;55.844;-3.210;2023-08-30T02:44:36;98567.05;;;10.06;100.00
45872;BME280;32333;55.844;-3.210;2023-08-30T02:47:03;98575.37;;;8.92;100.00
45872;BME280;32333;55.844;-3.210;2023-08-30T02:49:31;98573.80;;;9.46;100.00
45872;BME280;32333;55.844;-3.210;2023-08-30T02:52:00;98569.30;;;10.65;100.00
45872;BME280;32333;55.844;-3.210;2023-08-30T02:54:27;98571.63;;;10.34;100.00
45872;BME280;32333;55.844;-3.210;2023-08-30T02:56:55;98571.39;;;9.92;100.00
45872;BME280;32333;55.844;-3.210;2023-08-30T02:59:23;98572.89;;;10.34;100.00
45872;BME280;32333;55.844;-3.210;2023-08-30T03:01:51;98575.08;;;9.98;100.00
45872;BME280;32333;55.844;-3.210;2023-08-30T03:04:19;98572.18;;;10.98;100.00
45872;BME280;32333;55.844;-3.210;2023-08-30T03:06:50;98572.01;;;11.41;100.00
45872;BME280;32333;55.844;-3.210;2023-08-30T03:09:17;98568.77;;;10.59;100.00
45872;BME280;32333;55.844;-3.210;2023-08-30T03:11:47;98565.60;;;11.91;100.00
45872;BME280;32333;55.844;-3.210;2023-08-30T03:14:37;98565.15;;;10.75;100.00
45872;BME280;32333;55.844;-3.210;2023-08-30T03:17:09;98563.49;;;9.43;100.00
45872;BME280;32333;55.844;-3.210;2023-08-30T03:19:37;98567.06;;;10.92;100.00
45872;BME280;32333;55.844;-3.210;2023-08-30T03:22:05;98563.71;;;10.13;100.00
45872;BME280;32333;55.844;-3.210;2023-08-30T03:24:33;98560.70;;;10.62;100.00
45872;BME280;32333;55.844;-3.210;2023-08-30T03:27:01;98556.69;;;10.98;100.00
45872;BME280;32333;55.844;-3.210;2023-08-30T03:29:30;98556.40;;;11.58;100.00
45872;BME280;32333;55.844;-3.210;2023-08-30T03:31:58;98555.13;;;11.49;100.00
45872;BME280;32333;55.844;-3.210;2023-08-30T03:34:26;98552.89;;;10.70;100.00
45872;BME280;32333;55.844;-3.210;2023-08-30T03:36:53;98553.65;;;10.09;100.00
45872;BME280;32333;55.844;-3.210;2023-08-30T03:39:22;98552.07;;;10.26;100.00
45872;BME280;32333;55.844;-3.210;2023-08-30T03:41:51;98552.61;;;10.18;100.00
45872;BME280;32333;55.844;-3.210;2023-08-30T03:44:37;98549.44;;;10.71;100.00
45872;BME280;32333;55.844;-3.210;2023-08-30T03:47:05;98550.62;;;10.14;100.00
45872;BME280;32333;55.844;-3.210;2023-08-30T03:49:32;98551.55;;;10.02;100.00
45872;BME280;32333;55.844;-3.210;2023-08-30T03:52:00;98547.60;;;10.27;100.00
45872;BME280;32333;55.844;-3.210;2023-08-30T03:54:28;98547.26;;;9.82;100.00
45872;BME280;32333;55.844;-3.210;2023-08-30T03:56:55;98547.34;;;9.80;100.00
45872;BME280;32333;55.844;-3.210;2023-08-30T03:59:23;98546.99;;;10.59;100.00
45872;BME280;32333;55.844;-3.210;2023-08-30T04:01:51;98548.10;;;9.96;100.00
45872;BME280;32333;55.844;-3.210;2023-08-30T04:04:18;98547.82;;;10.06;100.00
45872;BME280;32333;55.844;-3.210;2023-08-30T04:06:48;98546.88;;;10.64;100.00
45872;BME280;32333;55.844;-3.210;2023-08-30T04:09:16;98549.64;;;9.80;100.00
45872;BME280;32333;55.844;-3.210;2023-08-30T04:11:44;98554.82;;;9.57;100.00
45872;BME280;32333;55.844;-3.210;2023-08-30T04:14:36;98557.35;;;10.18;100.00
45872;BME280;32333;55.844;-3.210;2023-08-30T04:17:03;98554.64;;;10.15;100.00
45872;BME280;32333;55.844;-3.210;2023-08-30T04:19:31;98559.54;;;9.76;100.00
45872;BME280;32333;55.844;-3.210;2023-08-30T04:21:59;98554.81;;;9.65;100.00
45872;BME280;32333;55.844;-3.210;2023-08-30T04:24:27;98551.98;;;9.91;100.00
45872;BME280;32333;55.844;-3.210;2023-08-30T04:26:54;98551.39;;;9.45;100.00
45872;BME280;32333;55.844;-3.210;2023-08-30T04:29:23;98548.15;;;9.45;100.00
45872;BME280;32333;55.844;-3.210;2023-08-30T04:31:50;98547.85;;;9.63;100.00
45872;BME280;32333;55.844;-3.210;2023-08-30T04:34:17;98553.61;;;9.84;100.00
45872;BME280;32333;55.844;-3.210;2023-08-30T04:36:45;98555.13;;;9.55;100.00
45872;BME280;32333;55.844;-3.210;2023-08-30T04:39:13;98556.22;;;10.08;100.00
45872;BME280;32333;55.844;-3.210;2023-08-30T04:41:46;98554.09;;;10.18;100.00
45872;BME280;32333;55.844;-3.210;2023-08-30T04:44:36;98552.13;;;10.85;100.00
45872;BME280;32333;55.844;-3.210;2023-08-30T04:47:03;98554.58;;;9.92;100.00
45872;BME280;32333;55.844;-3.210;2023-08-30T04:49:33;98551.25;;;9.89;100.00
45872;BME280;32333;55.844;-3.210;2023-08-30T04:52:00;98560.76;;;10.29;100.00
45872;BME280;32333;55.844;-3.210;2023-08-30T04:54:28;98560.84;;;9.89;100.00
45872;BME280;32333;55.844;-3.210;2023-08-30T04:56:55;98564.77;;;9.12;100.00
45872;BME280;32333;55.844;-3.210;2023-08-30T04:59:25;98565.51;;;9.03;100.00
45872;BME280;32333;55.844;-3.210;2023-08-30T05:01:52;98566.24;;;9.33;100.00
45872;BME280;32333;55.844;-3.210;2023-08-30T05:04:19;98575.73;;;9.44;100.00
45872;BME280;32333;55.844;-3.210;2023-08-30T05:06:49;98575.50;;;9.85;100.00
45872;BME280;32333;55.844;-3.210;2023-08-30T05:09:16;98581.03;;;8.95;100.00
45872;BME280;32333;55.844;-3.210;2023-08-30T05:11:43;98580.53;;;9.22;100.00
45872;BME280;32333;55.844;-3.210;2023-08-30T05:14:36;98579.33;;;9.37;100.00
45872;BME280;32333;55.844;-3.210;2023-08-30T05:17:03;98575.39;;;9.23;100.00
45872;BME280;32333;55.844;-3.210;2023-08-30T05:19:30;98585.21;;;8.70;100.00
45872;BME280;32333;55.844;-3.210;2023-08-30T05:21:59;98592.52;;;9.47;100.00
45872;BME280;32333;55.844;-3.210;2023-08-30T05:24:26;98590.54;;;9.40;100.00
45872;BME280;32333;55.844;-3.210;2023-08-30T05:26:54;98592.56;;;9.15;100.00
45872;BME280;32333;55.844;-3.210;2023-08-30T05:29:21;98592.68;;;8.52;100.00
45872;BME280;32333;55.844;-3.210;2023-08-30T05:31:49;98598.77;;;8.77;100.00
45872;BME280;32333;55.844;-3.210;2023-08-30T05:34:17;98600.20;;;9.15;100.00
45872;BME280;32333;55.844;-3.210;2023-08-30T05:36:44;98604.26;;;9.00;100.00
45872;BME280;32333;55.844;-3.210;2023-08-30T05:39:12;98606.20;;;9.30;100.00
45872;BME280;32333;55.844;-3.210;2023-08-30T05:41:40;98604.96;;;9.79;100.00
45872;BME280;32333;55.844;-3.210;2023-08-30T05:44:35;98610.01;;;8.65;100.00
45872;BME280;32333;55.844;-3.210;2023-08-30T05:47:03;98612.75;;;9.15;100.00
45872;BME280;32333;55.844;-3.210;2023-08-30T05:49:31;98613.98;;;9.44;100.00
45872;BME280;32333;55.844;-3.210;2023-08-30T05:51:59;98614.43;;;8.87;100.00
45872;BME280;32333;55.844;-3.210;2023-08-30T05:54:27;98620.36;;;9.69;100.00
45872;BME280;32333;55.844;-3.210;2023-08-30T05:56:54;98618.66;;;8.87;100.00
45872;BME280;32333;55.844;-3.210;2023-08-30T05:59:22;98620.97;;;9.00;100.00
45872;BME280;32333;55.844;-3.210;2023-08-30T06:01:50;98625.85;;;8.25;100.00
45872;BME280;32333;55.844;-3.210;2023-08-30T06:04:17;98635.03;;;8.60;100.00
45872;BME280;32333;55.844;-3.210;2023-08-30T06:06:44;98638.92;;;9.32;100.00
45872;BME280;32333;55.844;-3.210;2023-08-30T06:09:12;98635.84;;;8.35;100.00
45872;BME280;32333;55.844;-3.210;2023-08-30T06:11:39;98635.91;;;8.29;100.00
45872;BME280;32333;55.844;-3.210;2023-08-30T06:14:35;98637.50;;;8.78;100.00
45872;BME280;32333;55.844;-3.210;2023-08-30T06:17:03;98633.93;;;8.61;100.00
45872;BME280;32333;55.844;-3.210;2023-08-30T06:19:30;98634.19;;;8.87;100.00
45872;BME280;32333;55.844;-3.210;2023-08-30T06:21:58;98631.91;;;9.04;100.00
45872;BME280;32333;55.844;-3.210;2023-08-30T06:24:25;98630.94;;;8.34;100.00
45872;BME280;32333;55.844;-3.210;2023-08-30T06:26:53;98633.44;;;8.37;100.00
45872;BME280;32333;55.844;-3.210;2023-08-30T06:29:20;98642.20;;;9.21;100.00
45872;BME280;32333;55.844;-3.210;2023-08-30T06:31:48;98642.13;;;9.02;100.00
45872;BME280;32333;55.844;-3.210;2023-08-30T06:34:15;98641.97;;;9.96;100.00
45872;BME280;32333;55.844;-3.210;2023-08-30T06:36:42;98648.27;;;9.40;100.00
45872;BME280;32333;55.844;-3.210;2023-08-30T06:39:11;98653.87;;;9.49;100.00
45872;BME280;32333;55.844;-3.210;2023-08-30T06:41:38;98648.13;;;10.77;100.00
45872;BME280;32333;55.844;-3.210;2023-08-30T06:44:43;98656.44;;;8.98;100.00
45872;BME280;32333;55.844;-3.210;2023-08-30T06:47:11;98651.74;;;10.51;100.00
45872;BME280;32333;55.844;-3.210;2023-08-30T06:49:38;98652.36;;;9.87;100.00
45872;BME280;32333;55.844;-3.210;2023-08-30T06:52:06;98645.85;;;12.13;100.00
45872;BME280;32333;55.844;-3.210;2023-08-30T06:54:35;98643.36;;;11.95;100.00
45872;BME280;32333;55.844;-3.210;2023-08-30T06:57:02;98645.48;;;11.69;100.00
45872;BME280;32333;55.844;-3.210;2023-08-30T06:59:29;98650.76;;;11.13;100.00
45872;BME280;32333;55.844;-3.210;2023-08-30T07:01:57;98649.13;;;11.89;100.00
45872;BME280;32333;55.844;-3.210;2023-08-30T07:04:25;98649.68;;;9.56;100.00
45872;BME280;32333;55.844;-3.210;2023-08-30T07:06:52;98652.04;;;10.76;100.00
45872;BME280;32333;55.844;-3.210;2023-08-30T07:09:19;98650.08;;;11.26;100.00
45872;BME280;32333;55.844;-3.210;2023-08-30T07:11:47;98648.66;;;10.80;100.00
45872;BME280;32333;55.844;-3.210;2023-08-30T07:14:36;98652.45;;;11.21;100.00
45872;BME280;32333;55.844;-3.210;2023-08-30T07:17:03;98659.15;;;9.61;100.00
45872;BME280;32333;55.844;-3.210;2023-08-30T07:19:30;98658.64;;;9.83;100.00
45872;BME280;32333;55.844;-3.210;2023-08-30T07:21:57;98659.93;;;10.85;100.00
45872;BME280;32333;55.844;-3.210;2023-08-30T07:24:25;98660.48;;;9.34;100.00
45872;BME280;32333;55.844;-3.210;2023-08-30T07:26:52;98662.61;;;9.89;100.00
45872;BME280;32333;55.844;-3.210;2023-08-30T07:29:19;98659.48;;;9.27;100.00
45872;BME280;32333;55.844;-3.210;2023-08-30T07:31:48;98660.59;;;9.64;100.00
45872;BME280;32333;55.844;-3.210;2023-08-30T07:34:16;98664.63;;;10.62;100.00
45872;BME280;32333;55.844;-3.210;2023-08-30T07:36:43;98670.77;;;8.72;100.00
45872;BME280;32333;55.844;-3.210;2023-08-30T07:39:12;98671.23;;;9.67;100.00
45872;BME280;32333;55.844;-3.210;2023-08-30T07:41:39;98674.58;;;9.59;100.00
45872;BME280;32333;55.844;-3.210;2023-08-30T07:44:35;98680.73;;;9.49;100.00
45872;BME280;32333;55.844;-3.210;2023-08-30T07:47:02;98673.37;;;10.60;100.00
45872;BME280;32333;55.844;-3.210;2023-08-30T07:49:30;98676.54;;;9.87;100.00
45872;BME280;32333;55.844;-3.210;2023-08-30T07:51:58;98673.34;;;10.21;100.00
45872;BME280;32333;55.844;-3.210;2023-08-30T07:54:25;98680.02;;;10.80;100.00
45872;BME280;32333;55.844;-3.210;2023-08-30T07:56:53;98677.99;;;10.34;100.00
45872;BME280;32333;55.844;-3.210;2023-08-30T07:59:20;98673.97;;;11.25;100.00
45872;BME280;32333;55.844;-3.210;2023-08-30T08:01:49;98666.09;;;11.03;100.00
45872;BME280;32333;55.844;-3.210;2023-08-30T08:04:16;98663.19;;;10.33;100.00
45872;BME280;32333;55.844;-3.210;2023-08-30T08:06:43;98665.19;;;11.68;100.00
45872;BME280;32333;55.844;-3.210;2023-08-30T08:09:11;98668.78;;;12.74;100.00
45872;BME280;32333;55.844;-3.210;2023-08-30T08:11:38;98668.94;;;13.10;100.00
45872;BME280;32333;55.844;-3.210;2023-08-30T08:14:35;98663.30;;;13.30;100.00
45872;BME280;32333;55.844;-3.210;2023-08-30T08:17:04;98661.88;;;12.88;100.00
45872;BME280;32333;55.844;-3.210;2023-08-30T08:19:31;98663.83;;;12.53;100.00
45872;BME280;32333;55.844;-3.210;2023-08-30T08:21:59;98659.06;;;14.01;100.00
45872;BME280;32333;55.844;-3.210;2023-08-30T08:24:26;98659.45;;;12.62;100.00
45872;BME280;32333;55.844;-3.210;2023-08-30T08:26:53;98660.37;;;12.68;100.00
45872;BME280;32333;55.844;-3.210;2023-08-30T08:29:21;98666.62;;;13.57;100.00
45872;BME280;32333;55.844;-3.210;2023-08-30T08:31:48;98672.97;;;13.69;100.00
45872;BME280;32333;55.844;-3.210;2023-08-30T08:34:15;98675.29;;;11.86;100.00
45872;BME280;32333;55.844;-3.210;2023-08-30T08:36:43;98680.66;;;12.38;100.00
45872;BME280;32333;55.844;-3.210;2023-08-30T08:39:10;98680.77;;;13.70;100.00
45872;BME280;32333;55.844;-3.210;2023-08-30T08:41:40;98682.44;;;13.71;100.00
45872;BME280;32333;55.844;-3.210;2023-08-30T08:44:36;98674.67;;;14.24;93.85
45872;BME280;32333;55.844;-3.210;2023-08-30T08:47:06;98675.67;;;14.44;96.17
45872;BME280;32333;55.844;-3.210;2023-08-30T08:49:34;98672.80;;;14.39;97.24
45872;BME280;32333;55.844;-3.210;2023-08-30T08:52:02;98681.31;;;14.34;96.43
45872;BME280;32333;55.844;-3.210;2023-08-30T08:54:32;98675.90;;;15.46;87.31
45872;BME280;32333;55.844;-3.210;2023-08-30T08:57:00;98678.54;;;15.02;89.53
45872;BME280;32333;55.844;-3.210;2023-08-30T08:59:29;98679.46;;;15.00;88.68
45872;BME280;32333;55.844;-3.210;2023-08-30T09:02:14;98682.67;;;15.35;87.89
45872;BME280;32333;55.844;-3.210;2023-08-30T09:04:44;98678.20;;;15.43;85.22
45872;BME280;32333;55.844;-3.210;2023-08-30T09:07:13;98675.18;;;15.97;79.66
45872;BME280;32333;55.844;-3.210;2023-08-30T09:09:41;98675.06;;;15.84;78.21
45872;BME280;32333;55.844;-3.210;2023-08-30T09:14:35;98678.32;;;15.52;75.91
45872;BME280;32333;55.844;-3.210;2023-08-30T09:17:03;98673.40;;;14.95;78.11
45872;BME280;32333;55.844;-3.210;2023-08-30T09:19:31;98673.48;;;14.77;78.97
45872;BME280;32333;55.844;-3.210;2023-08-30T09:21:59;98664.88;;;15.57;77.85
45872;BME280;32333;55.844;-3.210;2023-08-30T09:24:37;98664.65;;;15.12;77.94
45872;BME280;32333;55.844;-3.210;2023-08-30T09:27:04;98660.36;;;16.44;73.50
45872;BME280;32333;55.844;-3.210;2023-08-30T09:29:31;98662.17;;;16.86;74.12
45872;BME280;32333;55.844;-3.210;2023-08-30T09:32:00;98661.66;;;17.43;72.34
45872;BME280;32333;55.844;-3.210;2023-08-30T09:34:28;98660.42;;;15.43;74.86
45872;BME280;32333;55.844;-3.210;2023-08-30T09:36:56;98662.44;;;16.02;72.86
45872;BME280;32333;55.844;-3.210;2023-08-30T09:39:24;98663.18;;;16.33;71.46
45872;BME280;32333;55.844;-3.210;2023-08-30T09:41:51;98662.70;;;15.89;73.98
45872;BME280;32333;55.844;-3.210;2023-08-30T09:44:35;98664.93;;;17.39;73.57
45872;BME280;32333;55.844;-3.210;2023-08-30T09:47:03;98667.75;;;16.39;71.51
45872;BME280;32333;55.844;-3.210;2023-08-30T09:49:40;98661.28;;;15.76;72.94
45872;BME280;32333;55.844;-3.210;2023-08-30T09:52:10;98661.79;;;17.48;70.88
45872;BME280;32333;55.844;-3.210;2023-08-30T09:54:38;98669.63;;;16.45;75.10
45872;BME280;32333;55.844;-3.210;2023-08-30T09:57:07;98671.15;;;16.59;71.66
45872;BME280;32333;55.844;-3.210;2023-08-30T09:59:35;98659.31;;;16.66;71.54
45872;BME280;32333;55.844;-3.210;2023-08-30T10:02:03;98655.18;;;17.03;69.49
45872;BME280;32333;55.844;-3.210;2023-08-30T10:04:31;98656.32;;;17.22;67.31
45872;BME280;32333;55.844;-3.210;2023-08-30T10:06:59;98656.91;;;17.07;64.41
45872;BME280;32333;55.844;-3.210;2023-08-30T10:09:31;98664.30;;;17.24;66.42
45872;BME280;32333;55.844;-3.210;2023-08-30T10:12:00;98669.55;;;18.10;66.51
45872;BME280;32333;55.844;-3.210;2023-08-30T10:14:35;98670.64;;;17.65;68.54
45872;BME280;32333;55.844;-3.210;2023-08-30T10:17:05;98670.56;;;17.31;66.80
45872;BME280;32333;55.844;-3.210;2023-08-30T10:19:37;98674.99;;;16.58;69.88
45872;BME280;32333;55.844;-3.210;2023-08-30T10:22:06;98673.25;;;16.67;68.31
45872;BME280;32333;55.844;-3.210;2023-08-30T10:24:39;98670.04;;;18.24;66.06
45872;BME280;32333;55.844;-3.210;2023-08-30T10:27:09;98666.39;;;17.85;67.72
45872;BME280;32333;55.844;-3.210;2023-08-30T10:29:39;98664.32;;;17.57;68.89
45872;BME280;32333;55.844;-3.210;2023-08-30T10:32:08;98671.16;;;18.56;67.22
45872;BME280;32333;55.844;-3.210;2023-08-30T10:34:36;98672.04;;;18.08;69.24
45872;BME280;32333;55.844;-3.210;2023-08-30T10:37:07;98667.55;;;17.30;66.30
45872;BME280;32333;55.844;-3.210;2023-08-30T10:39:37;98668.31;;;19.39;62.42
45872;BME280;32333;55.844;-3.210;2023-08-30T10:44:46;98669.91;;;17.64;67.54
45872;BME280;32333;55.844;-3.210;2023-08-30T10:47:19;98676.73;;;18.56;68.03
45872;BME280;32333;55.844;-3.210;2023-08-30T10:49:47;98679.37;;;19.19;62.72
45872;BME280;32333;55.844;-3.210;2023-08-30T10:52:15;98674.49;;;16.39;63.38
45872;BME280;32333;55.844;-3.210;2023-08-30T10:54:43;98679.35;;;16.47;68.22
45872;BME280;32333;55.844;-3.210;2023-08-30T10:57:18;98679.29;;;16.21;68.06
45872;BME280;32333;55.844;-3.210;2023-08-30T11:00:05;98678.85;;;18.24;63.80
45872;BME280;32333;55.844;-3.210;2023-08-30T11:02:35;98677.77;;;19.19;62.43
45872;BME280;32333;55.844;-3.210;2023-08-30T11:05:05;98681.81;;;18.87;60.29
45872;BME280;32333;55.844;-3.210;2023-08-30T11:07:34;98682.89;;;16.13;62.91
45872;BME280;32333;55.844;-3.210;2023-08-30T11:10:04;98690.00;;;15.48;66.81
45872;BME280;32333;55.844;-3.210;2023-08-30T11:14:35;98684.77;;;14.75;70.62
45872;BME280;32333;55.844;-3.210;2023-08-30T11:17:10;98684.65;;;16.69;66.55
45872;BME280;32333;55.844;-3.210;2023-08-30T11:19:37;98680.93;;;17.08;65.69
45872;BME280;32333;55.844;-3.210;2023-08-30T11:22:04;98679.75;;;17.63;65.61
45872;BME280;32333;55.844;-3.210;2023-08-30T11:24:34;98678.99;;;16.57;67.89
45872;BME280;32333;55.844;-3.210;2023-08-30T11:27:01;98683.04;;;15.90;66.79
45872;BME280;32333;55.844;-3.210;2023-08-30T11:29:28;98682.40;;;16.29;65.01
45872;BME280;32333;55.844;-3.210;2023-08-30T11:31:56;98683.46;;;16.66;64.37
45872;BME280;32333;55.844;-3.210;2023-08-30T11:34:23;98687.90;;;15.72;67.16
45872;BME280;32333;55.844;-3.210;2023-08-30T11:36:50;98690.39;;;15.58;69.48
45872;BME280;32333;55.844;-3.210;2023-08-30T11:39:19;98687.28;;;16.32;68.51
45872;BME280;32333;55.844;-3.210;2023-08-30T11:41:47;98688.37;;;15.86;71.30
45872;BME280;32333;55.844;-3.210;2023-08-30T11:44:36;98689.06;;;16.50;69.78
45872;BME280;32333;55.844;-3.210;2023-08-30T11:47:04;98686.62;;;17.82;67.50
45872;BME280;32333;55.844;-3.210;2023-08-30T11:49:31;98685.12;;;17.37;64.48
45872;BME280;32333;55.844;-3.210;2023-08-30T11:52:00;98683.37;;;17.46;64.79
45872;BME280;32333;55.844;-3.210;2023-08-30T11:54:28;98690.09;;;16.80;63.87
45872;BME280;32333;55.844;-3.210;2023-08-30T11:56:56;98690.89;;;16.90;64.46
45872;BME280;32333;55.844;-3.210;2023-08-30T11:59:24;98693.08;;;16.77;65.09
45872;BME280;32333;55.844;-3.210;2023-08-30T12:01:53;98690.33;;;16.60;63.47
45872;BME280;32333;55.844;-3.210;2023-08-30T12:04:21;98697.04;;;15.43;68.05
45872;BME280;32333;55.844;-3.210;2023-08-30T12:06:51;98695.15;;;15.83;64.25
45872;BME280;32333;55.844;-3.210;2023-08-30T12:09:19;98697.15;;;18.38;60.67
45872;BME280;32333;55.844;-3.210;2023-08-30T12:14:36;98687.28;;;18.48;59.80
45872;BME280;32333;55.844;-3.210;2023-08-30T12:17:04;98692.66;;;18.58;58.32
45872;BME280;32333;55.844;-3.210;2023-08-30T12:19:31;98689.48;;;17.71;62.41
45872;BME280;32333;55.844;-3.210;2023-08-30T12:22:04;98690.58;;;16.84;64.48
45872;BME280;32333;55.844;-3.210;2023-08-30T12:24:49;98694.62;;;16.60;64.23
45872;BME280;32333;55.844;-3.210;2023-08-30T12:27:16;98698.71;;;16.52;67.74
45872;BME280;32333;55.844;-3.210;2023-08-30T12:29:43;98697.89;;;16.99;68.38
45872;BME280;32333;55.844;-3.210;2023-08-30T12:32:11;98699.08;;;16.06;68.57
45872;BME280;32333;55.844;-3.210;2023-08-30T12:34:39;98698.20;;;17.37;65.39
45872;BME280;32333;55.844;-3.210;2023-08-30T12:37:20;98701.29;;;18.40;63.49
45872;BME280;32333;55.844;-3.210;2023-08-30T12:40:40;98698.01;;;17.49;66.79
45872;BME280;32333;55.844;-3.210;2023-08-30T12:44:35;98693.96;;;18.90;60.85
45872;BME280;32333;55.844;-3.210;2023-08-30T12:47:03;98694.38;;;16.79;68.17
45872;BME280;32333;55.844;-3.210;2023-08-30T12:49:38;98693.14;;;18.32;63.09
45872;BME280;32333;55.844;-3.210;2023-08-30T12:52:14;98694.93;;;18.33;60.05
45872;BME280;32333;55.844;-3.210;2023-08-30T12:54:43;98691.57;;;17.63;62.82
45872;BME280;32333;55.844;-3.210;2023-08-30T12:57:10;98691.91;;;18.55;62.63
45872;BME280;32333;55.844;-3.210;2023-08-30T12:59:38;98682.79;;;19.83;58.71
45872;BME280;32333;55.844;-3.210;2023-08-30T13:02:06;98685.02;;;19.19;61.31
45872;BME280;32333;55.844;-3.210;2023-08-30T13:04:34;98682.22;;;20.49;57.11
45872;BME280;32333;55.844;-3.210;2023-08-30T13:07:05;98678.58;;;18.78;58.28
45872;BME280;32333;55.844;-3.210;2023-08-30T13:09:32;98680.35;;;18.90;57.26
45872;BME280;32333;55.844;-3.210;2023-08-30T13:14:38;98676.02;;;20.15;51.41
45872;BME280;32333;55.844;-3.210;2023-08-30T13:17:06;98682.18;;;18.50;53.33
45872;BME280;32333;55.844;-3.210;2023-08-30T13:19:35;98684.97;;;18.52;53.36
45872;BME280;32333;55.844;-3.210;2023-08-30T13:22:04;98689.64;;;17.98;55.87